sensor_id;sensor_type;location;lat;lon;timestamp;P1;durP1;ratioP1;P2;durP2;ratioP2
38603;SDS011;24924;50.054;8.790;2023-03-22T00:01:09;14.98;;;8.55;;
38603;SDS011;24924;50.054;8.790;2023-03-22T00:03:37;13.30;;;9.00;;
38603;SDS011;24924;50.054;8.790;2023-03-22T00:06:03;14.02;;;8.77;;
38603;SDS011;24924;50.054;8.790;2023-03-22T00:08:29;13.63;;;8.20;;
38603;SDS011;24924;50.054;8.790;2023-03-22T00:10:55;12.45;;;8.07;;
38603;SDS011;24924;50.054;8.790;2023-03-22T00:13:21;14.30;;;8.53;;
38603;SDS011;24924;50.054;8.790;2023-03-22T00:15:47;12.77;;;7.72;;
38603;SDS011;24924;50.054;8.790;2023-03-22T00:18:14;12.18;;;7.65;;
38603;SDS011;24924;50.054;8.790;2023-03-22T00:20:47;12.00;;;7.80;;
38603;SDS011;24924;50.054;8.790;2023-03-22T00:23:14;12.13;;;7.75;;
38603;SDS011;24924;50.054;8.790;2023-03-22T00:25:42;12.00;;;7.30;;
38603;SDS011;24924;50.054;8.790;2023-03-22T00:28:08;13.07;;;7.80;;
38603;SDS011;24924;50.054;8.790;2023-03-22T00:30:34;11.95;;;7.72;;
38603;SDS011;24924;50.054;8.790;2023-03-22T00:33:00;12.83;;;7.63;;
38603;SDS011;24924;50.054;8.790;2023-03-22T00:35:26;12.38;;;7.63;;
38603;SDS011;24924;50.054;8.790;2023-03-22T00:37:52;11.90;;;7.70;;
38603;SDS011;24924;50.054;8.790;2023-03-22T00:40:21;12.85;;;7.85;;
38603;SDS011;24924;50.054;8.790;2023-03-22T00:42:48;10.60;;;7.33;;
38603;SDS011;24924;50.054;8.790;2023-03-22T00:45:15;11.45;;;7.03;;
38603;SDS011;24924;50.054;8.790;2023-03-22T00:47:41;10.82;;;7.25;;
38603;SDS011;24924;50.054;8.790;2023-03-22T00:50:07;11.60;;;7.13;;
38603;SDS011;24924;50.054;8.790;2023-03-22T00:52:35;10.60;;;6.78;;
38603;SDS011;24924;50.054;8.790;2023-03-22T00:55:02;11.60;;;7.13;;
38603;SDS011;24924;50.054;8.790;2023-03-22T00:57:28;12.48;;;6.88;;
38603;SDS011;24924;50.054;8.790;2023-03-22T00:59:54;12.98;;;6.57;;
38603;SDS011;24924;50.054;8.790;2023-03-22T01:02:21;9.43;;;6.45;;
38603;SDS011;24924;50.054;8.790;2023-03-22T01:04:53;11.30;;;6.68;;
38603;SDS011;24924;50.054;8.790;2023-03-22T01:07:21;10.63;;;6.90;;
38603;SDS011;24924;50.054;8.790;2023-03-22T01:09:48;10.95;;;6.53;;
38603;SDS011;24924;50.054;8.790;2023-03-22T01:12:18;10.05;;;6.75;;
38603;SDS011;24924;50.054;8.790;2023-03-22T01:14:44;11.10;;;6.88;;
38603;SDS011;24924;50.054;8.790;2023-03-22T01:17:11;10.23;;;6.68;;
38603;SDS011;24924;50.054;8.790;2023-03-22T01:19:37;10.37;;;6.83;;
38603;SDS011;24924;50.054;8.790;2023-03-22T01:22:04;11.20;;;7.20;;
38603;SDS011;24924;50.054;8.790;2023-03-22T01:24:31;12.27;;;7.00;;
38603;SDS011;24924;50.054;8.790;2023-03-22T01:26:57;13.63;;;7.43;;
38603;SDS011;24924;50.054;8.790;2023-03-22T01:29:23;10.52;;;6.90;;
38603;SDS011;24924;50.054;8.790;2023-03-22T01:31:50;11.43;;;6.80;;
38603;SDS011;24924;50.054;8.790;2023-03-22T01:34:16;12.23;;;7.05;;
38603;SDS011;24924;50.054;8.790;2023-03-22T01:36:42;10.82;;;6.65;;
38603;SDS011;24924;50.054;8.790;2023-03-22T01:39:08;12.95;;;7.43;;
38603;SDS011;24924;50.054;8.790;2023-03-22T01:41:35;12.63;;;7.35;;
38603;SDS011;24924;50.054;8.790;2023-03-22T01:44:19;11.83;;;6.83;;
38603;SDS011;24924;50.054;8.790;2023-03-22T01:46:47;12.02;;;7.35;;
38603;SDS011;24924;50.054;8.790;2023-03-22T01:51:44;11.85;;;7.43;;
38603;SDS011;24924;50.054;8.790;2023-03-22T01:54:26;12.23;;;7.78;;
38603;SDS011;24924;50.054;8.790;2023-03-22T01:57:03;13.93;;;7.70;;
38603;SDS011;24924;50.054;8.790;2023-03-22T01:59:36;12.15;;;7.68;;
38603;SDS011;24924;50.054;8.790;2023-03-22T02:02:13;12.90;;;7.65;;
38603;SDS011;24924;50.054;8.790;2023-03-22T02:04:47;13.90;;;7.75;;
38603;SDS011;24924;50.054;8.790;2023-03-22T02:07:24;12.43;;;8.52;;
38603;SDS011;24924;50.054;8.790;2023-03-22T02:09:56;11.53;;;7.77;;
38603;SDS011;24924;50.054;8.790;2023-03-22T02:15:22;13.82;;;7.95;;
38603;SDS011;24924;50.054;8.790;2023-03-22T02:21:26;13.70;;;8.23;;
38603;SDS011;24924;50.054;8.790;2023-03-22T02:30:04;15.95;;;8.40;;
38603;SDS011;24924;50.054;8.790;2023-03-22T02:32:45;12.88;;;8.18;;
38603;SDS011;24924;50.054;8.790;2023-03-22T02:47:02;15.48;;;8.52;;
38603;SDS011;24924;50.054;8.790;2023-03-22T02:49:34;15.07;;;8.43;;
38603;SDS011;24924;50.054;8.790;2023-03-22T02:54:42;15.00;;;8.93;;
38603;SDS011;24924;50.054;8.790;2023-03-22T02:57:12;13.65;;;8.65;;
38603;SDS011;24924;50.054;8.790;2023-03-22T02:59:42;16.08;;;8.88;;
38603;SDS011;24924;50.054;8.790;2023-03-22T03:02:10;14.18;;;9.52;;
38603;SDS011;24924;50.054;8.790;2023-03-22T03:04:41;13.93;;;8.33;;
38603;SDS011;24924;50.054;8.790;2023-03-22T03:07:11;11.82;;;8.48;;
38603;SDS011;24924;50.054;8.790;2023-03-22T03:09:40;12.98;;;8.32;;
38603;SDS011;24924;50.054;8.790;2023-03-22T03:12:13;11.98;;;8.25;;
38603;SDS011;24924;50.054;8.790;2023-03-22T03:14:43;13.35;;;8.27;;
38603;SDS011;24924;50.054;8.790;2023-03-22T03:17:12;12.63;;;7.97;;
38603;SDS011;24924;50.054;8.790;2023-03-22T03:25:39;12.43;;;7.55;;
38603;SDS011;24924;50.054;8.790;2023-03-22T03:28:32;11.95;;;7.35;;
38603;SDS011;24924;50.054;8.790;2023-03-22T03:31:05;13.33;;;8.23;;
38603;SDS011;24924;50.054;8.790;2023-03-22T03:33:40;14.98;;;8.30;;
38603;SDS011;24924;50.054;8.790;2023-03-22T03:36:14;12.40;;;7.93;;
38603;SDS011;24924;50.054;8.790;2023-03-22T03:38:43;12.73;;;8.50;;
38603;SDS011;24924;50.054;8.790;2023-03-22T03:41:15;12.38;;;8.63;;
38603;SDS011;24924;50.054;8.790;2023-03-22T03:43:43;12.00;;;7.93;;
38603;SDS011;24924;50.054;8.790;2023-03-22T03:46:11;13.02;;;8.10;;
38603;SDS011;24924;50.054;8.790;2023-03-22T03:48:38;13.15;;;8.45;;
38603;SDS011;24924;50.054;8.790;2023-03-22T03:51:09;12.60;;;7.93;;
38603;SDS011;24924;50.054;8.790;2023-03-22T03:53:35;12.63;;;8.30;;
38603;SDS011;24924;50.054;8.790;2023-03-22T03:56:02;12.97;;;8.73;;
38603;SDS011;24924;50.054;8.790;2023-03-22T03:58:34;12.65;;;8.10;;
38603;SDS011;24924;50.054;8.790;2023-03-22T04:01:00;13.35;;;8.82;;
38603;SDS011;24924;50.054;8.790;2023-03-22T04:03:42;10.65;;;7.53;;
38603;SDS011;24924;50.054;8.790;2023-03-22T04:06:32;13.13;;;8.50;;
38603;SDS011;24924;50.054;8.790;2023-03-22T04:09:03;12.57;;;8.07;;
38603;SDS011;24924;50.054;8.790;2023-03-22T04:11:36;14.02;;;8.20;;
38603;SDS011;24924;50.054;8.790;2023-03-22T04:14:02;12.13;;;8.23;;
38603;SDS011;24924;50.054;8.790;2023-03-22T04:16:28;14.30;;;8.57;;
38603;SDS011;24924;50.054;8.790;2023-03-22T04:18:55;11.40;;;7.67;;
38603;SDS011;24924;50.054;8.790;2023-03-22T04:21:21;13.32;;;8.18;;
38603;SDS011;24924;50.054;8.790;2023-03-22T04:23:55;12.38;;;7.97;;
38603;SDS011;24924;50.054;8.790;2023-03-22T04:26:22;12.90;;;8.30;;
38603;SDS011;24924;50.054;8.790;2023-03-22T04:29:04;13.20;;;8.30;;
38603;SDS011;24924;50.054;8.790;2023-03-22T04:31:32;12.57;;;7.73;;
38603;SDS011;24924;50.054;8.790;2023-03-22T04:34:06;12.52;;;7.55;;
38603;SDS011;24924;50.054;8.790;2023-03-22T04:36:52;12.82;;;7.55;;
38603;SDS011;24924;50.054;8.790;2023-03-22T04:39:28;12.75;;;7.20;;
38603;SDS011;24924;50.054;8.790;2023-03-22T04:42:16;11.40;;;7.82;;
38603;SDS011;24924;50.054;8.790;2023-03-22T04:44:43;18.70;;;8.33;;
38603;SDS011;24924;50.054;8.790;2023-03-22T04:47:09;12.38;;;7.70;;
38603;SDS011;24924;50.054;8.790;2023-03-22T04:49:35;14.63;;;8.13;;
38603;SDS011;24924;50.054;8.790;2023-03-22T04:52:01;13.20;;;7.90;;
38603;SDS011;24924;50.054;8.790;2023-03-22T04:54:33;11.50;;;8.02;;
38603;SDS011;24924;50.054;8.790;2023-03-22T04:57:00;11.05;;;7.22;;
38603;SDS011;24924;50.054;8.790;2023-03-22T04:59:30;10.20;;;7.18;;
38603;SDS011;24924;50.054;8.790;2023-03-22T05:01:57;10.68;;;7.47;;
38603;SDS011;24924;50.054;8.790;2023-03-22T05:04:25;11.67;;;7.90;;
38603;SDS011;24924;50.054;8.790;2023-03-22T05:06:58;12.88;;;7.50;;
38603;SDS011;24924;50.054;8.790;2023-03-22T05:09:32;10.15;;;7.25;;
38603;SDS011;24924;50.054;8.790;2023-03-22T05:11:58;11.15;;;7.13;;
38603;SDS011;24924;50.054;8.790;2023-03-22T05:14:35;13.32;;;7.75;;
38603;SDS011;24924;50.054;8.790;2023-03-22T05:17:02;11.57;;;7.27;;
38603;SDS011;24924;50.054;8.790;2023-03-22T05:19:32;10.88;;;7.63;;
38603;SDS011;24924;50.054;8.790;2023-03-22T05:21:59;13.57;;;7.95;;
38603;SDS011;24924;50.054;8.790;2023-03-22T05:24:41;11.57;;;7.57;;
38603;SDS011;24924;50.054;8.790;2023-03-22T05:27:11;11.48;;;7.47;;
38603;SDS011;24924;50.054;8.790;2023-03-22T05:29:39;13.00;;;8.13;;
38603;SDS011;24924;50.054;8.790;2023-03-22T05:32:21;13.13;;;8.23;;
38603;SDS011;24924;50.054;8.790;2023-03-22T05:34:52;12.98;;;8.70;;
38603;SDS011;24924;50.054;8.790;2023-03-22T05:37:28;14.18;;;8.48;;
38603;SDS011;24924;50.054;8.790;2023-03-22T05:39:55;14.23;;;8.88;;
38603;SDS011;24924;50.054;8.790;2023-03-22T05:42:30;13.33;;;8.00;;
38603;SDS011;24924;50.054;8.790;2023-03-22T05:44:57;12.43;;;8.02;;
38603;SDS011;24924;50.054;8.790;2023-03-22T05:47:23;13.05;;;8.65;;
38603;SDS011;24924;50.054;8.790;2023-03-22T05:50:00;12.88;;;8.30;;
38603;SDS011;24924;50.054;8.790;2023-03-22T05:52:27;13.00;;;8.27;;
38603;SDS011;24924;50.054;8.790;2023-03-22T05:55:11;12.63;;;8.55;;
38603;SDS011;24924;50.054;8.790;2023-03-22T05:57:38;12.35;;;8.90;;
38603;SDS011;24924;50.054;8.790;2023-03-22T06:00:07;15.70;;;8.50;;
38603;SDS011;24924;50.054;8.790;2023-03-22T06:03:00;12.63;;;8.40;;
38603;SDS011;24924;50.054;8.790;2023-03-22T06:05:30;13.90;;;9.47;;
38603;SDS011;24924;50.054;8.790;2023-03-22T06:07:56;11.65;;;7.82;;
38603;SDS011;24924;50.054;8.790;2023-03-22T06:10:23;13.13;;;8.75;;
38603;SDS011;24924;50.054;8.790;2023-03-22T06:12:51;13.23;;;8.65;;
38603;SDS011;24924;50.054;8.790;2023-03-22T06:15:26;14.85;;;8.82;;
38603;SDS011;24924;50.054;8.790;2023-03-22T06:17:58;13.43;;;8.13;;
38603;SDS011;24924;50.054;8.790;2023-03-22T06:20:28;14.68;;;8.35;;
38603;SDS011;24924;50.054;8.790;2023-03-22T06:22:59;12.65;;;8.50;;
38603;SDS011;24924;50.054;8.790;2023-03-22T06:25:25;14.93;;;9.00;;
38603;SDS011;24924;50.054;8.790;2023-03-22T06:27:51;13.37;;;9.07;;
38603;SDS011;24924;50.054;8.790;2023-03-22T06:30:19;15.55;;;9.38;;
38603;SDS011;24924;50.054;8.790;2023-03-22T06:33:02;14.07;;;9.40;;
38603;SDS011;24924;50.054;8.790;2023-03-22T06:35:33;15.00;;;8.73;;
38603;SDS011;24924;50.054;8.790;2023-03-22T06:38:00;14.77;;;9.20;;
38603;SDS011;24924;50.054;8.790;2023-03-22T06:40:26;14.90;;;9.20;;
38603;SDS011;24924;50.054;8.790;2023-03-22T06:42:53;14.05;;;9.55;;
38603;SDS011;24924;50.054;8.790;2023-03-22T06:45:20;13.35;;;8.82;;
38603;SDS011;24924;50.054;8.790;2023-03-22T06:47:47;15.40;;;9.27;;
38603;SDS011;24924;50.054;8.790;2023-03-22T06:50:35;18.08;;;10.73;;
38603;SDS011;24924;50.054;8.790;2023-03-22T06:53:24;15.87;;;9.03;;
38603;SDS011;24924;50.054;8.790;2023-03-22T06:55:50;17.42;;;9.95;;
38603;SDS011;24924;50.054;8.790;2023-03-22T06:58:21;15.07;;;8.65;;
38603;SDS011;24924;50.054;8.790;2023-03-22T07:00:47;16.65;;;8.63;;
38603;SDS011;24924;50.054;8.790;2023-03-22T07:03:16;13.25;;;8.75;;
38603;SDS011;24924;50.054;8.790;2023-03-22T07:06:01;13.30;;;8.03;;
38603;SDS011;24924;50.054;8.790;2023-03-22T07:08:32;10.10;;;6.03;;
38603;SDS011;24924;50.054;8.790;2023-03-22T07:10:59;10.73;;;7.05;;
38603;SDS011;24924;50.054;8.790;2023-03-22T07:13:26;10.55;;;6.53;;
38603;SDS011;24924;50.054;8.790;2023-03-22T07:15:57;9.88;;;6.45;;
38603;SDS011;24924;50.054;8.790;2023-03-22T07:18:38;11.43;;;6.43;;
38603;SDS011;24924;50.054;8.790;2023-03-22T07:21:04;9.75;;;6.55;;
38603;SDS011;24924;50.054;8.790;2023-03-22T07:23:32;13.82;;;6.60;;
38603;SDS011;24924;50.054;8.790;2023-03-22T07:26:04;10.68;;;6.15;;
38603;SDS011;24924;50.054;8.790;2023-03-22T07:28:32;8.50;;;5.97;;
38603;SDS011;24924;50.054;8.790;2023-03-22T07:31:04;10.17;;;6.03;;
38603;SDS011;24924;50.054;8.790;2023-03-22T07:33:42;11.73;;;6.10;;
38603;SDS011;24924;50.054;8.790;2023-03-22T07:36:08;10.18;;;6.20;;
38603;SDS011;24924;50.054;8.790;2023-03-22T07:38:34;9.65;;;5.80;;
38603;SDS011;24924;50.054;8.790;2023-03-22T07:41:03;11.07;;;5.47;;
38603;SDS011;24924;50.054;8.790;2023-03-22T07:43:46;10.03;;;5.13;;
38603;SDS011;24924;50.054;8.790;2023-03-22T07:46:15;11.43;;;6.05;;
38603;SDS011;24924;50.054;8.790;2023-03-22T07:48:55;8.68;;;5.10;;
38603;SDS011;24924;50.054;8.790;2023-03-22T07:51:40;7.80;;;4.97;;
38603;SDS011;24924;50.054;8.790;2023-03-22T07:54:06;11.40;;;5.90;;
38603;SDS011;24924;50.054;8.790;2023-03-22T07:56:32;7.87;;;5.67;;
38603;SDS011;24924;50.054;8.790;2023-03-22T07:58:58;8.18;;;5.13;;
38603;SDS011;24924;50.054;8.790;2023-03-22T08:01:25;8.82;;;5.00;;
38603;SDS011;24924;50.054;8.790;2023-03-22T08:04:02;7.75;;;4.97;;
38603;SDS011;24924;50.054;8.790;2023-03-22T08:06:40;9.85;;;5.40;;
38603;SDS011;24924;50.054;8.790;2023-03-22T08:09:07;8.23;;;5.07;;
38603;SDS011;24924;50.054;8.790;2023-03-22T08:11:33;11.38;;;5.05;;
38603;SDS011;24924;50.054;8.790;2023-03-22T08:14:00;8.93;;;5.15;;
38603;SDS011;24924;50.054;8.790;2023-03-22T08:16:29;8.38;;;4.50;;
38603;SDS011;24924;50.054;8.790;2023-03-22T08:18:56;12.80;;;5.15;;
38603;SDS011;24924;50.054;8.790;2023-03-22T08:21:25;8.90;;;4.37;;
38603;SDS011;24924;50.054;8.790;2023-03-22T08:23:53;8.00;;;4.70;;
38603;SDS011;24924;50.054;8.790;2023-03-22T08:26:37;8.85;;;4.50;;
38603;SDS011;24924;50.054;8.790;2023-03-22T08:29:12;7.18;;;4.18;;
38603;SDS011;24924;50.054;8.790;2023-03-22T08:31:38;7.93;;;4.27;;
38603;SDS011;24924;50.054;8.790;2023-03-22T08:34:04;8.20;;;4.47;;
38603;SDS011;24924;50.054;8.790;2023-03-22T08:36:30;6.97;;;4.10;;
38603;SDS011;24924;50.054;8.790;2023-03-22T08:39:00;7.40;;;4.05;;
38603;SDS011;24924;50.054;8.790;2023-03-22T08:41:37;9.43;;;4.50;;
38603;SDS011;24924;50.054;8.790;2023-03-22T08:44:03;7.93;;;3.80;;
38603;SDS011;24924;50.054;8.790;2023-03-22T08:46:32;6.32;;;3.70;;
38603;SDS011;24924;50.054;8.790;2023-03-22T08:48:59;6.47;;;3.53;;
38603;SDS011;24924;50.054;8.790;2023-03-22T08:51:32;7.53;;;3.92;;
38603;SDS011;24924;50.054;8.790;2023-03-22T08:54:08;11.00;;;4.60;;
38603;SDS011;24924;50.054;8.790;2023-03-22T08:56:53;9.48;;;4.57;;
38603;SDS011;24924;50.054;8.790;2023-03-22T08:59:38;8.25;;;4.40;;
38603;SDS011;24924;50.054;8.790;2023-03-22T09:02:18;7.40;;;3.85;;
38603;SDS011;24924;50.054;8.790;2023-03-22T09:04:44;7.60;;;3.60;;
38603;SDS011;24924;50.054;8.790;2023-03-22T09:07:11;6.60;;;3.60;;
38603;SDS011;24924;50.054;8.790;2023-03-22T09:09:38;6.45;;;3.45;;
38603;SDS011;24924;50.054;8.790;2023-03-22T09:12:04;6.80;;;3.70;;
38603;SDS011;24924;50.054;8.790;2023-03-22T09:14:33;6.05;;;3.55;;
38603;SDS011;24924;50.054;8.790;2023-03-22T09:16:59;5.80;;;3.50;;
38603;SDS011;24924;50.054;8.790;2023-03-22T09:19:25;7.82;;;3.67;;
38603;SDS011;24924;50.054;8.790;2023-03-22T09:21:51;7.33;;;3.60;;
38603;SDS011;24924;50.054;8.790;2023-03-22T09:24:28;5.00;;;3.15;;
38603;SDS011;24924;50.054;8.790;2023-03-22T09:26:58;6.68;;;3.97;;
38603;SDS011;24924;50.054;8.790;2023-03-22T09:29:24;8.50;;;3.50;;
38603;SDS011;24924;50.054;8.790;2023-03-22T09:31:50;7.03;;;3.70;;
38603;SDS011;24924;50.054;8.790;2023-03-22T09:34:19;7.90;;;3.40;;
38603;SDS011;24924;50.054;8.790;2023-03-22T09:36:46;8.80;;;3.40;;
38603;SDS011;24924;50.054;8.790;2023-03-22T09:39:14;6.80;;;3.80;;
38603;SDS011;24924;50.054;8.790;2023-03-22T09:44:21;5.85;;;3.25;;
38603;SDS011;24924;50.054;8.790;2023-03-22T09:46:53;6.65;;;3.25;;
38603;SDS011;24924;50.054;8.790;2023-03-22T09:49:22;5.20;;;2.83;;
38603;SDS011;24924;50.054;8.790;2023-03-22T09:51:51;5.70;;;2.85;;
38603;SDS011;24924;50.054;8.790;2023-03-22T09:54:20;5.53;;;3.05;;
38603;SDS011;24924;50.054;8.790;2023-03-22T10:00:03;7.72;;;2.97;;
38603;SDS011;24924;50.054;8.790;2023-03-22T10:10:38;4.55;;;2.45;;
38603;SDS011;24924;50.054;8.790;2023-03-22T10:16:01;5.00;;;2.63;;
38603;SDS011;24924;50.054;8.790;2023-03-22T10:18:31;4.85;;;2.10;;
38603;SDS011;24924;50.054;8.790;2023-03-22T10:21:05;5.05;;;2.70;;
38603;SDS011;24924;50.054;8.790;2023-03-22T10:26:04;5.07;;;2.33;;
38603;SDS011;24924;50.054;8.790;2023-03-22T10:28:39;4.17;;;2.03;;
38603;SDS011;24924;50.054;8.790;2023-03-22T10:31:12;3.70;;;1.90;;
38603;SDS011;24924;50.054;8.790;2023-03-22T10:36:55;4.40;;;1.70;;
38603;SDS011;24924;50.054;8.790;2023-03-22T10:39:31;3.90;;;2.00;;
38603;SDS011;24924;50.054;8.790;2023-03-22T10:42:04;4.70;;;2.17;;
38603;SDS011;24924;50.054;8.790;2023-03-22T10:44:33;5.20;;;2.20;;
38603;SDS011;24924;50.054;8.790;2023-03-22T10:47:04;4.47;;;2.20;;
38603;SDS011;24924;50.054;8.790;2023-03-22T10:49:37;4.63;;;1.90;;
38603;SDS011;24924;50.054;8.790;2023-03-22T10:52:16;3.80;;;2.00;;
38603;SDS011;24924;50.054;8.790;2023-03-22T10:54:44;4.80;;;1.80;;
38603;SDS011;24924;50.054;8.790;2023-03-22T10:57:10;4.07;;;1.80;;
38603;SDS011;24924;50.054;8.790;2023-03-22T11:02:19;5.05;;;2.10;;
38603;SDS011;24924;50.054;8.790;2023-03-22T11:04:46;4.97;;;2.28;;
38603;SDS011;24924;50.054;8.790;2023-03-22T11:07:36;4.20;;;1.93;;
38603;SDS011;24924;50.054;8.790;2023-03-22T11:12:32;4.30;;;1.97;;
38603;SDS011;24924;50.054;8.790;2023-03-22T11:15:02;4.22;;;1.73;;
38603;SDS011;24924;50.054;8.790;2023-03-22T11:17:28;4.63;;;1.90;;
38603;SDS011;24924;50.054;8.790;2023-03-22T11:19:59;3.75;;;1.90;;
38603;SDS011;24924;50.054;8.790;2023-03-22T11:25:03;4.43;;;1.90;;
38603;SDS011;24924;50.054;8.790;2023-03-22T11:27:38;4.32;;;1.98;;
38603;SDS011;24924;50.054;8.790;2023-03-22T11:32:46;4.13;;;1.80;;
38603;SDS011;24924;50.054;8.790;2023-03-22T11:37:45;5.03;;;2.20;;
38603;SDS011;24924;50.054;8.790;2023-03-22T11:40:20;4.45;;;1.80;;
38603;SDS011;24924;50.054;8.790;2023-03-22T11:42:48;5.97;;;2.00;;
38603;SDS011;24924;50.054;8.790;2023-03-22T11:45:24;4.90;;;1.90;;
38603;SDS011;24924;50.054;8.790;2023-03-22T11:47:53;4.07;;;1.98;;
38603;SDS011;24924;50.054;8.790;2023-03-22T11:50:30;3.60;;;1.80;;
38603;SDS011;24924;50.054;8.790;2023-03-22T11:53:02;4.35;;;1.80;;
38603;SDS011;24924;50.054;8.790;2023-03-22T11:55:31;3.70;;;1.80;;
38603;SDS011;24924;50.054;8.790;2023-03-22T11:58:03;4.00;;;2.00;;
38603;SDS011;24924;50.054;8.790;2023-03-22T12:00:31;4.30;;;2.03;;
38603;SDS011;24924;50.054;8.790;2023-03-22T12:03:06;3.90;;;2.10;;
38603;SDS011;24924;50.054;8.790;2023-03-22T12:05:39;4.03;;;1.80;;
38603;SDS011;24924;50.054;8.790;2023-03-22T12:08:32;3.50;;;1.90;;
38603;SDS011;24924;50.054;8.790;2023-03-22T12:11:14;3.63;;;1.90;;
38603;SDS011;24924;50.054;8.790;2023-03-22T12:13:54;3.47;;;1.70;;
38603;SDS011;24924;50.054;8.790;2023-03-22T12:16:27;4.80;;;1.80;;
38603;SDS011;24924;50.054;8.790;2023-03-22T12:21:57;4.70;;;1.95;;
38603;SDS011;24924;50.054;8.790;2023-03-22T12:24:26;3.78;;;1.67;;
38603;SDS011;24924;50.054;8.790;2023-03-22T12:26:55;5.05;;;2.00;;
38603;SDS011;24924;50.054;8.790;2023-03-22T12:29:25;6.03;;;2.00;;
38603;SDS011;24924;50.054;8.790;2023-03-22T12:31:57;4.82;;;1.70;;
38603;SDS011;24924;50.054;8.790;2023-03-22T12:34:33;3.28;;;1.50;;
38603;SDS011;24924;50.054;8.790;2023-03-22T12:37:06;3.97;;;1.73;;
38603;SDS011;24924;50.054;8.790;2023-03-22T12:39:38;3.50;;;1.90;;
38603;SDS011;24924;50.054;8.790;2023-03-22T12:42:12;3.43;;;1.50;;
38603;SDS011;24924;50.054;8.790;2023-03-22T12:44:45;4.13;;;1.60;;
38603;SDS011;24924;50.054;8.790;2023-03-22T12:47:18;5.05;;;1.70;;
38603;SDS011;24924;50.054;8.790;2023-03-22T12:49:51;4.25;;;1.75;;
38603;SDS011;24924;50.054;8.790;2023-03-22T12:55:03;5.33;;;1.50;;
38603;SDS011;24924;50.054;8.790;2023-03-22T12:57:30;4.78;;;1.98;;
38603;SDS011;24924;50.054;8.790;2023-03-22T12:59:56;5.28;;;1.70;;
38603;SDS011;24924;50.054;8.790;2023-03-22T13:02:31;3.40;;;1.60;;
38603;SDS011;24924;50.054;8.790;2023-03-22T13:04:59;5.25;;;1.80;;
38603;SDS011;24924;50.054;8.790;2023-03-22T13:10:36;3.80;;;1.60;;
38603;SDS011;24924;50.054;8.790;2023-03-22T13:16:01;3.65;;;1.60;;
38603;SDS011;24924;50.054;8.790;2023-03-22T13:21:09;3.70;;;1.70;;
38603;SDS011;24924;50.054;8.790;2023-03-22T13:26:19;4.03;;;1.80;;
38603;SDS011;24924;50.054;8.790;2023-03-22T13:28:53;3.53;;;1.80;;
38603;SDS011;24924;50.054;8.790;2023-03-22T13:31:30;3.88;;;1.80;;
38603;SDS011;24924;50.054;8.790;2023-03-22T13:34:20;4.40;;;1.90;;
38603;SDS011;24924;50.054;8.790;2023-03-22T13:36:54;3.80;;;1.75;;
38603;SDS011;24924;50.054;8.790;2023-03-22T13:39:21;3.70;;;1.67;;
38603;SDS011;24924;50.054;8.790;2023-03-22T13:42:35;3.60;;;1.70;;
38603;SDS011;24924;50.054;8.790;2023-03-22T13:44:43;4.20;;;1.52;;
38603;SDS011;24924;50.054;8.790;2023-03-22T13:50:17;4.40;;;1.58;;
38603;SDS011;24924;50.054;8.790;2023-03-22T13:52:56;4.95;;;1.85;;
38603;SDS011;24924;50.054;8.790;2023-03-22T14:01:03;4.90;;;1.70;;
38603;SDS011;24924;50.054;8.790;2023-03-22T14:03:34;4.18;;;1.98;;
38603;SDS011;24924;50.054;8.790;2023-03-22T14:06:06;7.75;;;1.92;;
38603;SDS011;24924;50.054;8.790;2023-03-22T14:08:46;4.55;;;1.70;;
38603;SDS011;24924;50.054;8.790;2023-03-22T14:11:18;4.30;;;1.55;;
38603;SDS011;24924;50.054;8.790;2023-03-22T14:14:08;4.43;;;1.70;;
38603;SDS011;24924;50.054;8.790;2023-03-22T14:16:39;4.53;;;1.50;;
38603;SDS011;24924;50.054;8.790;2023-03-22T14:19:27;3.50;;;1.70;;
38603;SDS011;24924;50.054;8.790;2023-03-22T14:21:58;3.40;;;1.70;;
38603;SDS011;24924;50.054;8.790;2023-03-22T14:24:27;3.38;;;1.77;;
38603;SDS011;24924;50.054;8.790;2023-03-22T14:26:57;4.10;;;1.80;;
38603;SDS011;24924;50.054;8.790;2023-03-22T14:29:25;3.85;;;1.65;;
38603;SDS011;24924;50.054;8.790;2023-03-22T14:34:23;3.78;;;1.80;;
38603;SDS011;24924;50.054;8.790;2023-03-22T14:36:54;3.75;;;1.60;;
38603;SDS011;24924;50.054;8.790;2023-03-22T14:39:24;3.70;;;1.97;;
38603;SDS011;24924;50.054;8.790;2023-03-22T14:42:01;3.85;;;1.48;;
38603;SDS011;24924;50.054;8.790;2023-03-22T14:44:30;4.40;;;1.60;;
38603;SDS011;24924;50.054;8.790;2023-03-22T14:47:14;3.55;;;1.70;;
38603;SDS011;24924;50.054;8.790;2023-03-22T14:49:41;3.80;;;1.90;;
38603;SDS011;24924;50.054;8.790;2023-03-22T14:52:14;3.50;;;1.67;;
38603;SDS011;24924;50.054;8.790;2023-03-22T14:54:42;3.90;;;1.83;;
38603;SDS011;24924;50.054;8.790;2023-03-22T14:57:11;3.88;;;1.77;;
38603;SDS011;24924;50.054;8.790;2023-03-22T14:59:38;3.83;;;1.48;;
38603;SDS011;24924;50.054;8.790;2023-03-22T15:02:12;9.20;;;2.13;;
38603;SDS011;24924;50.054;8.790;2023-03-22T15:04:55;4.07;;;1.83;;
38603;SDS011;24924;50.054;8.790;2023-03-22T15:07:21;3.50;;;1.70;;
38603;SDS011;24924;50.054;8.790;2023-03-22T15:09:47;3.83;;;1.85;;
38603;SDS011;24924;50.054;8.790;2023-03-22T15:12:14;3.90;;;1.80;;
38603;SDS011;24924;50.054;8.790;2023-03-22T15:14:41;4.20;;;1.90;;
38603;SDS011;24924;50.054;8.790;2023-03-22T15:17:08;4.50;;;2.00;;
38603;SDS011;24924;50.054;8.790;2023-03-22T15:19:37;6.63;;;2.10;;
38603;SDS011;24924;50.054;8.790;2023-03-22T15:22:17;4.90;;;1.90;;
38603;SDS011;24924;50.054;8.790;2023-03-22T15:25:03;3.70;;;1.63;;
38603;SDS011;24924;50.054;8.790;2023-03-22T15:27:30;4.72;;;2.00;;
38603;SDS011;24924;50.054;8.790;2023-03-22T15:29:57;4.27;;;1.80;;
38603;SDS011;24924;50.054;8.790;2023-03-22T15:32:24;4.22;;;1.90;;
38603;SDS011;24924;50.054;8.790;2023-03-22T15:34:51;4.40;;;1.90;;
38603;SDS011;24924;50.054;8.790;2023-03-22T15:37:27;4.60;;;1.80;;
38603;SDS011;24924;50.054;8.790;2023-03-22T15:39:54;6.32;;;2.00;;
38603;SDS011;24924;50.054;8.790;2023-03-22T15:42:31;3.77;;;1.90;;
38603;SDS011;24924;50.054;8.790;2023-03-22T15:45:01;6.70;;;1.83;;
38603;SDS011;24924;50.054;8.790;2023-03-22T15:47:41;4.07;;;1.88;;
38603;SDS011;24924;50.054;8.790;2023-03-22T15:50:10;5.22;;;2.05;;
38603;SDS011;24924;50.054;8.790;2023-03-22T15:52:45;4.40;;;1.98;;
38603;SDS011;24924;50.054;8.790;2023-03-22T15:55:14;4.13;;;1.83;;
38603;SDS011;24924;50.054;8.790;2023-03-22T15:57:48;4.85;;;1.98;;
38603;SDS011;24924;50.054;8.790;2023-03-22T16:05:29;5.50;;;1.90;;
38603;SDS011;24924;50.054;8.790;2023-03-22T16:07:55;4.67;;;1.80;;
38603;SDS011;24924;50.054;8.790;2023-03-22T16:10:23;3.63;;;1.90;;
38603;SDS011;24924;50.054;8.790;2023-03-22T16:12:50;4.38;;;2.30;;
38603;SDS011;24924;50.054;8.790;2023-03-22T16:15:16;4.50;;;1.80;;
38603;SDS011;24924;50.054;8.790;2023-03-22T16:17:44;4.53;;;1.88;;
38603;SDS011;24924;50.054;8.790;2023-03-22T16:20:11;4.68;;;2.10;;
38603;SDS011;24924;50.054;8.790;2023-03-22T16:22:37;4.68;;;2.10;;
38603;SDS011;24924;50.054;8.790;2023-03-22T16:25:05;3.75;;;1.85;;
38603;SDS011;24924;50.054;8.790;2023-03-22T16:27:31;5.03;;;2.00;;
38603;SDS011;24924;50.054;8.790;2023-03-22T16:29:56;3.88;;;1.92;;
38603;SDS011;24924;50.054;8.790;2023-03-22T16:32:23;4.43;;;2.27;;
38603;SDS011;24924;50.054;8.790;2023-03-22T16:34:50;4.20;;;1.90;;
38603;SDS011;24924;50.054;8.790;2023-03-22T16:37:23;3.95;;;2.00;;
38603;SDS011;24924;50.054;8.790;2023-03-22T16:39:49;3.90;;;2.17;;
38603;SDS011;24924;50.054;8.790;2023-03-22T16:42:20;4.05;;;2.00;;
38603;SDS011;24924;50.054;8.790;2023-03-22T16:44:47;5.20;;;1.90;;
38603;SDS011;24924;50.054;8.790;2023-03-22T16:47:16;4.43;;;2.08;;